Time;durP1;ratioP1;P1;durP2;ratioP2;P2;SDS_P1;SDS_P2;PMS_P1;PMS_P2;Temp;Humidity;BMP_temperature;BMP_pressure;BME280_temperature;BME280_humidity;BME280_pressure;Samples;Min_cycle;Max_cycle;Signal;HPM_P1;HPM_P2
2023/12/03 00:01:42;;;;;;;;;;;0.30;99.90;;;;;;5115846;27;19976;-29
2023/12/03 00:04:09;;;;;;;;;;;0.30;99.90;;;;;;5108476;27;20387;-29
2023/12/03 00:06:36;;;;;;;;;;;0.20;99.90;;;;;;5122378;27;20040;-29
2023/12/03 00:09:02;;;;;;;;;;;0.30;99.90;;;;;;5135264;27;19939;-29
2023/12/03 00:11:30;;;;;;;;;;;0.20;99.90;;;;;;5134658;27;20016;-28
2023/12/03 00:13:57;;;;;;;;;;;0.20;99.90;;;;;;5111794;28;19965;-29
2023/12/03 00:16:23;;;;;;;;;;;0.20;99.90;;;;;;5129439;27;19939;-29
2023/12/03 00:18:50;;;;;;;;;;;0.20;99.90;;;;;;5134550;27;19950;-29
2023/12/03 00:21:17;;;;;;;;;;;0.20;99.90;;;;;;5130479;27;20312;-29
2023/12/03 00:23:43;;;;;;;;;;;0.20;99.90;;;;;;5107463;28;20396;-29
2023/12/03 00:26:10;;;;;;;;;;;0.20;99.90;;;;;;5110659;27;19993;-29
2023/12/03 00:28:38;;;;;;;;;;;0.20;99.90;;;;;;5119904;27;19939;-28
2023/12/03 00:31:05;;;;;;;;;;;0.10;99.90;;;;;;5128875;27;19959;-29
2023/12/03 00:33:31;;;;;;;;;;;0.20;99.90;;;;;;5129493;27;20430;-29
2023/12/03 00:35:59;;;;;;;;;;;0.20;99.90;;;;;;5113405;27;19944;-28
2023/12/03 00:38:25;;;;;;;;;;;0.20;99.90;;;;;;5123415;27;20031;-29
2023/12/03 00:40:52;;;;;;;;;;;0.10;99.90;;;;;;5114952;27;20368;-28
2023/12/03 00:43:19;;;;;;;;;;;0.10;99.90;;;;;;5115561;27;19940;-29
2023/12/03 00:45:47;;;;;;;;;;;0.10;99.90;;;;;;5133404;27;19938;-30
2023/12/03 00:48:13;;;;;;;;;;;0.10;99.90;;;;;;5133715;27;19941;-29
2023/12/03 00:50:40;;;;;;;;;;;0.10;99.90;;;;;;5115630;27;19939;-30
2023/12/03 00:53:06;;;;;;;;;;;0.10;99.90;;;;;;5115081;27;20418;-29
2023/12/03 00:55:33;;;;;;;;;;;0.00;99.90;;;;;;5114296;27;19941;-29
2023/12/03 00:58:00;;;;;;;;;;;0.10;99.90;;;;;;5132918;27;19940;-29
2023/12/03 01:00:27;;;;;;;;;;;0.00;99.90;;;;;;5113995;27;19951;-29
2023/12/03 01:02:55;;;;;;;;;;;0.10;99.90;;;;;;5133588;27;19930;-28
2023/12/03 01:05:21;;;;;;;;;;;0.00;99.90;;;;;;5132890;27;19980;-29
2023/12/03 01:07:48;;;;;;;;;;;0.10;99.90;;;;;;5114435;27;19942;-29
2023/12/03 01:10:15;;;;;;;;;;;0.10;99.90;;;;;;5115069;27;20012;-28
2023/12/03 01:12:41;;;;;;;;;;;0.00;99.90;;;;;;5113279;27;19965;-29
2023/12/03 01:15:08;;;;;;;;;;;0.00;99.90;;;;;;5122232;27;19948;-29
2023/12/03 01:17:35;;;;;;;;;;;0.10;99.90;;;;;;5110016;27;20353;-29
2023/12/03 01:20:04;;;;;;;;;;;0.00;99.90;;;;;;5114380;27;19927;-29
2023/12/03 01:22:30;;;;;;;;;;;0.10;99.90;;;;;;5132937;27;20416;-29
2023/12/03 01:24:57;;;;;;;;;;;0.10;99.90;;;;;;5108234;27;19940;-29
2023/12/03 01:27:24;;;;;;;;;;;0.10;99.90;;;;;;5133628;27;19940;-29
2023/12/03 01:29:50;;;;;;;;;;;0.10;99.90;;;;;;5111571;27;19939;-28
2023/12/03 01:32:17;;;;;;;;;;;0.10;99.90;;;;;;5113682;28;19952;-29
2023/12/03 01:34:43;;;;;;;;;;;0.10;99.90;;;;;;5114047;28;19983;-29
2023/12/03 01:37:11;;;;;;;;;;;0.10;99.90;;;;;;5126911;27;20372;-29
2023/12/03 01:39:38;;;;;;;;;;;0.10;99.90;;;;;;5107588;28;22269;-29
2023/12/03 01:42:05;;;;;;;;;;;0.10;99.90;;;;;;5096495;28;19990;-30
2023/12/03 01:44:32;;;;;;;;;;;0.10;99.90;;;;;;5112898;28;20013;-30
2023/12/03 01:46:59;;;;;;;;;;;0.10;99.90;;;;;;5132347;27;20314;-29
2023/12/03 01:49:25;;;;;;;;;;;0.20;99.90;;;;;;5118303;27;19996;-29
2023/12/03 01:51:52;;;;;;;;;;;0.20;99.90;;;;;;5123971;27;20389;-29
2023/12/03 01:54:20;;;;;;;;;;;0.10;99.90;;;;;;5123586;27;20389;-28
2023/12/03 01:56:48;;;;;;;;;;;0.20;99.90;;;;;;5115501;27;19941;-31
2023/12/03 01:59:14;;;;;;;;;;;0.20;99.90;;;;;;5119515;27;20251;-30
2023/12/03 02:01:41;;;;;;;;;;;0.20;99.90;;;;;;5120553;27;19983;-29
2023/12/03 02:04:07;;;;;;;;;;;0.20;99.90;;;;;;5118027;27;19945;-29
2023/12/03 02:06:34;;;;;;;;;;;0.30;99.90;;;;;;5119194;27;20042;-29
2023/12/03 02:09:01;;;;;;;;;;;0.30;99.90;;;;;;5115574;27;19943;-29
2023/12/03 02:11:29;;;;;;;;;;;0.30;99.90;;;;;;5130396;27;20374;-29
2023/12/03 02:13:55;;;;;;;;;;;0.30;99.90;;;;;;5115857;27;19945;-30
2023/12/03 02:16:22;;;;;;;;;;;0.30;99.90;;;;;;5135361;27;19963;-30
2023/12/03 02:18:48;;;;;;;;;;;0.30;99.90;;;;;;5117661;27;19989;-30
2023/12/03 02:21:15;;;;;;;;;;;0.40;99.90;;;;;;5098675;28;20312;-29
2023/12/03 02:23:43;;;;;;;;;;;0.40;99.90;;;;;;5116649;27;20284;-29
2023/12/03 02:26:10;;;;;;;;;;;0.40;99.90;;;;;;5130498;27;19941;-29
2023/12/03 02:28:36;;;;;;;;;;;0.40;99.90;;;;;;5117759;27;19994;-30
2023/12/03 02:31:03;;;;;;;;;;;0.40;99.90;;;;;;5112132;27;19985;-30
2023/12/03 02:33:30;;;;;;;;;;;0.50;99.90;;;;;;5133803;27;20005;-28
2023/12/03 02:35:56;;;;;;;;;;;0.50;99.90;;;;;;5118206;27;19942;-29
2023/12/03 02:38:23;;;;;;;;;;;0.50;99.90;;;;;;5117225;27;20485;-30
2023/12/03 02:40:51;;;;;;;;;;;0.50;99.90;;;;;;5135281;27;20004;-30
2023/12/03 02:43:17;;;;;;;;;;;0.50;99.90;;;;;;5109596;27;19988;-30
2023/12/03 02:45:44;;;;;;;;;;;0.50;99.90;;;;;;5117863;27;19941;-30
2023/12/03 02:48:11;;;;;;;;;;;0.60;99.90;;;;;;5132219;27;19939;-28
2023/12/03 02:50:37;;;;;;;;;;;0.60;99.90;;;;;;5116530;27;20394;-31
2023/12/03 02:53:04;;;;;;;;;;;0.60;99.90;;;;;;5105453;28;19971;-29
2023/12/03 02:55:31;;;;;;;;;;;0.60;99.90;;;;;;5114294;27;19941;-30
2023/12/03 02:57:59;;;;;;;;;;;0.60;99.90;;;;;;5117232;27;19943;-30
2023/12/03 03:00:25;;;;;;;;;;;0.60;99.90;;;;;;5111098;27;19991;-29
2023/12/03 03:02:52;;;;;;;;;;;0.70;99.90;;;;;;5116720;27;20568;-29
2023/12/03 03:05:19;;;;;;;;;;;0.70;99.90;;;;;;5117135;27;20198;-30
2023/12/03 03:07:45;;;;;;;;;;;0.70;99.90;;;;;;5134479;27;19992;-30
2023/12/03 03:10:12;;;;;;;;;;;0.70;99.90;;;;;;5134590;27;20000;-31
2023/12/03 03:12:39;;;;;;;;;;;0.70;99.90;;;;;;5116077;27;19954;-30
2023/12/03 03:15:07;;;;;;;;;;;0.80;99.90;;;;;;5134151;27;19943;-30
2023/12/03 03:17:34;;;;;;;;;;;0.70;99.90;;;;;;5134604;27;19983;-30
2023/12/03 03:20:01;;;;;;;;;;;0.80;99.90;;;;;;5112605;27;19986;-29
2023/12/03 03:22:27;;;;;;;;;;;0.80;99.90;;;;;;5117113;27;19936;-29
2023/12/03 03:24:54;;;;;;;;;;;0.80;99.90;;;;;;5115713;27;20444;-30
2023/12/03 03:27:20;;;;;;;;;;;0.80;99.90;;;;;;5134690;27;19993;-30
2023/12/03 03:29:47;;;;;;;;;;;0.90;99.90;;;;;;5113668;27;19939;-30
2023/12/03 03:32:15;;;;;;;;;;;0.80;99.90;;;;;;5115874;27;19956;-30
2023/12/03 03:34:42;;;;;;;;;;;0.80;99.90;;;;;;5116067;27;19976;-30
2023/12/03 03:37:08;;;;;;;;;;;0.80;99.90;;;;;;5116830;27;19923;-30
2023/12/03 03:39:35;;;;;;;;;;;0.90;99.90;;;;;;5133513;27;19935;-29
2023/12/03 03:42:03;;;;;;;;;;;0.90;99.90;;;;;;5133206;27;19936;-29
2023/12/03 03:44:30;;;;;;;;;;;0.90;99.90;;;;;;5108081;27;19936;-29
2023/12/03 03:46:56;;;;;;;;;;;0.90;99.90;;;;;;5109910;27;20043;-30
2023/12/03 03:49:24;;;;;;;;;;;1.00;99.90;;;;;;5134258;27;20360;-29
2023/12/03 03:51:51;;;;;;;;;;;0.90;99.90;;;;;;5133909;27;19940;-29
2023/12/03 03:54:17;;;;;;;;;;;0.90;99.90;;;;;;5129529;27;20361;-29
2023/12/03 03:56:45;;;;;;;;;;;1.00;99.90;;;;;;5116457;27;19970;-30
2023/12/03 03:59:12;;;;;;;;;;;1.00;99.90;;;;;;5131548;27;19944;-29
2023/12/03 04:01:41;;;;;;;;;;;1.00;99.90;;;;;;5111072;27;19996;-30
2023/12/03 04:04:08;;;;;;;;;;;1.00;99.90;;;;;;5115786;27;19940;-30
2023/12/03 04:06:38;;;;;;;;;;;1.00;99.90;;;;;;5128139;27;19938;-29
2023/12/03 04:09:06;;;;;;;;;;;1.00;99.90;;;;;;5115660;27;19936;-30
2023/12/03 04:11:33;;;;;;;;;;;1.00;99.90;;;;;;5114844;27;19963;-30
2023/12/03 04:13:59;;;;;;;;;;;1.00;99.90;;;;;;5109702;27;20423;-29
2023/12/03 04:16:26;;;;;;;;;;;1.00;99.90;;;;;;5114817;27;19989;-30
2023/12/03 04:18:53;;;;;;;;;;;1.00;99.90;;;;;;5114845;27;19940;-29
2023/12/03 04:21:19;;;;;;;;;;;1.00;99.90;;;;;;5129635;27;19936;-29
2023/12/03 04:23:50;;;;;;;;;;;1.00;99.90;;;;;;5134302;27;20297;-29
2023/12/03 04:26:17;;;;;;;;;;;1.00;99.90;;;;;;5132553;27;19941;-29
2023/12/03 04:28:44;;;;;;;;;;;1.00;99.90;;;;;;5115706;27;19980;-29
2023/12/03 04:31:19;;;;;;;;;;;1.00;99.90;;;;;;5132658;27;19940;-30
2023/12/03 04:33:45;;;;;;;;;;;1.00;99.90;;;;;;5114425;27;19950;-29
2023/12/03 04:36:13;;;;;;;;;;;1.00;99.90;;;;;;5110424;27;19940;-29
2023/12/03 04:38:39;;;;;;;;;;;1.00;99.90;;;;;;5115100;27;19943;-29
2023/12/03 04:41:08;;;;;;;;;;;1.10;99.90;;;;;;5132208;27;19947;-30
2023/12/03 04:43:35;;;;;;;;;;;1.00;99.90;;;;;;5120761;27;19980;-30
2023/12/03 04:46:03;;;;;;;;;;;1.10;99.90;;;;;;5115278;27;19989;-29
2023/12/03 04:48:29;;;;;;;;;;;1.00;99.90;;;;;;5109853;27;19994;-29
2023/12/03 04:50:56;;;;;;;;;;;1.00;99.90;;;;;;5125761;27;19968;-29
2023/12/03 04:53:23;;;;;;;;;;;1.00;99.90;;;;;;5127422;27;20097;-29
2023/12/03 04:55:49;;;;;;;;;;;1.00;99.90;;;;;;5113555;27;20360;-29
2023/12/03 04:58:17;;;;;;;;;;;1.00;99.90;;;;;;5111785;27;19993;-29
2023/12/03 05:00:44;;;;;;;;;;;1.00;99.90;;;;;;5125761;27;20392;-29
2023/12/03 05:03:11;;;;;;;;;;;1.00;99.90;;;;;;5097649;27;19962;-29
2023/12/03 05:05:37;;;;;;;;;;;1.00;99.90;;;;;;5114533;27;19941;-29
2023/12/03 05:08:04;;;;;;;;;;;1.00;99.90;;;;;;5114509;27;20391;-29
2023/12/03 05:10:31;;;;;;;;;;;1.10;99.90;;;;;;5114004;27;19939;-30
2023/12/03 05:12:56;;;;;;;;;;;1.10;99.90;;;;;;5112920;27;19960;-30
2023/12/03 05:15:24;;;;;;;;;;;1.00;99.90;;;;;;5112748;27;20375;-29
2023/12/03 05:17:51;;;;;;;;;;;1.00;99.90;;;;;;5107732;27;19980;-30
2023/12/03 05:20:18;;;;;;;;;;;1.10;99.90;;;;;;5114682;27;19952;-29
2023/12/03 05:22:44;;;;;;;;;;;1.10;99.90;;;;;;5113230;27;19951;-29
2023/12/03 05:25:11;;;;;;;;;;;1.10;99.90;;;;;;5114977;27;19940;-29
2023/12/03 05:27:38;;;;;;;;;;;1.10;99.90;;;;;;5113628;28;19941;-28
2023/12/03 05:30:05;;;;;;;;;;;1.00;99.90;;;;;;5114235;27;19942;-29
2023/12/03 05:32:33;;;;;;;;;;;1.10;99.90;;;;;;5131177;27;20362;-30
2023/12/03 05:34:59;;;;;;;;;;;1.10;99.90;;;;;;5114041;28;20429;-30
2023/12/03 05:37:28;;;;;;;;;;;1.10;99.90;;;;;;5113551;28;19981;-29
2023/12/03 05:39:55;;;;;;;;;;;1.20;99.90;;;;;;5113522;28;19943;-30
2023/12/03 05:42:22;;;;;;;;;;;1.10;99.90;;;;;;5099994;28;20000;-29
2023/12/03 05:44:48;;;;;;;;;;;1.10;99.90;;;;;;5112004;28;19937;-30
2023/12/03 05:47:15;;;;;;;;;;;1.10;99.90;;;;;;5112777;28;19989;-30
2023/12/03 05:49:43;;;;;;;;;;;1.10;99.90;;;;;;5113343;28;20004;-30
2023/12/03 05:52:10;;;;;;;;;;;1.20;99.90;;;;;;5114718;28;20415;-30
2023/12/03 05:54:36;;;;;;;;;;;1.10;99.90;;;;;;5105780;28;19997;-30
2023/12/03 05:57:03;;;;;;;;;;;1.20;99.90;;;;;;5120220;28;19986;-29
2023/12/03 05:59:30;;;;;;;;;;;1.20;99.90;;;;;;5123799;28;19955;-30
2023/12/03 06:01:57;;;;;;;;;;;1.20;99.90;;;;;;5100620;28;19994;-29
2023/12/03 06:04:24;;;;;;;;;;;1.20;99.90;;;;;;5114185;28;19985;-29
2023/12/03 06:06:52;;;;;;;;;;;1.20;99.90;;;;;;5130783;28;19935;-29
2023/12/03 06:09:19;;;;;;;;;;;1.30;99.90;;;;;;5112447;28;19990;-29
2023/12/03 06:11:45;;;;;;;;;;;1.20;99.90;;;;;;5131821;28;20009;-30
2023/12/03 06:14:12;;;;;;;;;;;1.30;99.90;;;;;;5110675;28;20410;-29
2023/12/03 06:16:39;;;;;;;;;;;1.30;99.90;;;;;;5113066;28;19937;-29
2023/12/03 06:19:06;;;;;;;;;;;1.20;99.90;;;;;;5113597;28;19938;-30
2023/12/03 06:21:32;;;;;;;;;;;1.30;99.90;;;;;;5126339;28;19943;-30
2023/12/03 06:24:00;;;;;;;;;;;1.30;99.90;;;;;;5113467;28;19948;-29
2023/12/03 06:26:27;;;;;;;;;;;1.30;99.90;;;;;;5109282;28;19985;-29
2023/12/03 06:28:54;;;;;;;;;;;1.30;99.90;;;;;;5110998;28;20034;-29
2023/12/03 06:31:20;;;;;;;;;;;1.30;99.90;;;;;;5127709;28;20353;-30
2023/12/03 06:33:47;;;;;;;;;;;1.30;99.90;;;;;;5105064;27;20398;-30
2023/12/03 06:36:14;;;;;;;;;;;1.30;99.90;;;;;;5114382;27;20311;-30
2023/12/03 06:38:40;;;;;;;;;;;1.30;99.90;;;;;;5116024;27;19938;-29
2023/12/03 06:41:08;;;;;;;;;;;1.40;99.90;;;;;;5126328;27;20418;-29
2023/12/03 06:43:35;;;;;;;;;;;1.30;99.90;;;;;;5117116;27;19941;-30
2023/12/03 06:46:02;;;;;;;;;;;1.30;99.90;;;;;;5107319;27;20008;-30
2023/12/03 06:48:28;;;;;;;;;;;1.40;99.90;;;;;;5126356;27;20352;-30
2023/12/03 06:50:55;;;;;;;;;;;1.40;99.90;;;;;;5106759;27;19997;-30
2023/12/03 06:53:21;;;;;;;;;;;1.40;99.90;;;;;;5128005;27;19955;-29
2023/12/03 06:55:48;;;;;;;;;;;1.40;99.90;;;;;;5112242;27;19990;-29
2023/12/03 06:58:16;;;;;;;;;;;1.40;99.90;;;;;;5132297;27;20360;-29
2023/12/03 07:00:43;;;;;;;;;;;1.40;99.90;;;;;;5131971;27;20353;-29
2023/12/03 07:03:09;;;;;;;;;;;1.40;99.90;;;;;;5131043;27;20350;-30
2023/12/03 07:05:38;;;;;;;;;;;1.40;99.90;;;;;;5129034;27;19935;-29
2023/12/03 07:08:04;;;;;;;;;;;1.40;99.90;;;;;;5108491;27;19991;-30
2023/12/03 07:10:31;;;;;;;;;;;1.40;99.90;;;;;;5109242;27;20418;-29
2023/12/03 07:12:58;;;;;;;;;;;1.40;99.90;;;;;;5112674;27;20400;-29
2023/12/03 07:15:26;;;;;;;;;;;1.40;99.90;;;;;;5106628;28;19938;-30
2023/12/03 07:17:52;;;;;;;;;;;1.40;99.90;;;;;;5115545;28;19937;-29
2023/12/03 07:20:19;;;;;;;;;;;1.50;99.90;;;;;;5134391;27;20445;-31
2023/12/03 07:22:45;;;;;;;;;;;1.50;99.90;;;;;;5133010;27;20448;-30
2023/12/03 07:25:12;;;;;;;;;;;1.50;99.90;;;;;;5107835;27;20006;-30
2023/12/03 07:27:39;;;;;;;;;;;1.40;99.90;;;;;;5115182;27;20080;-30
2023/12/03 07:30:06;;;;;;;;;;;1.40;99.90;;;;;;5103888;27;19965;-30
2023/12/03 07:32:35;;;;;;;;;;;1.50;99.90;;;;;;5116533;27;19943;-31
2023/12/03 07:35:01;;;;;;;;;;;1.50;99.90;;;;;;5131044;27;19977;-30
2023/12/03 07:37:28;;;;;;;;;;;1.50;99.90;;;;;;5110493;27;20488;-31
2023/12/03 07:39:55;;;;;;;;;;;1.50;99.90;;;;;;5134862;27;19984;-30
2023/12/03 07:42:21;;;;;;;;;;;1.50;99.90;;;;;;5118759;27;19944;-30
2023/12/03 07:44:48;;;;;;;;;;;1.50;99.90;;;;;;5113572;27;19981;-30
2023/12/03 07:47:15;;;;;;;;;;;1.50;99.90;;;;;;5127279;27;20039;-30
2023/12/03 07:49:43;;;;;;;;;;;1.50;99.90;;;;;;5115805;27;20387;-30
2023/12/03 07:52:09;;;;;;;;;;;1.50;99.90;;;;;;5108615;27;20387;-30
2023/12/03 07:54:36;;;;;;;;;;;1.50;99.90;;;;;;5130259;27;19950;-30
2023/12/03 07:57:03;;;;;;;;;;;1.50;99.90;;;;;;5114627;27;19939;-30
2023/12/03 07:59:30;;;;;;;;;;;1.60;99.90;;;;;;5128698;27;19941;-30
2023/12/03 08:01:58;;;;;;;;;;;1.50;99.90;;;;;;5128182;27;20474;-29
2023/12/03 08:04:25;;;;;;;;;;;1.50;99.90;;;;;;5104438;27;19997;-30
2023/12/03 08:06:54;;;;;;;;;;;1.60;99.90;;;;;;5106301;27;19996;-30
2023/12/03 08:09:21;;;;;;;;;;;1.60;99.90;;;;;;5127704;27;20023;-30
2023/12/03 08:11:48;;;;;;;;;;;1.60;99.90;;;;;;5115200;27;19959;-29
2023/12/03 08:14:14;;;;;;;;;;;1.60;99.90;;;;;;5131461;27;20036;-30
2023/12/03 08:16:41;;;;;;;;;;;1.60;99.90;;;;;;5114791;27;19983;-30
2023/12/03 08:19:07;;;;;;;;;;;1.60;99.90;;;;;;5128247;27;19966;-29
2023/12/03 08:21:36;;;;;;;;;;;1.60;99.90;;;;;;5116038;27;20436;-30
2023/12/03 08:24:04;;;;;;;;;;;1.60;99.90;;;;;;5114066;27;19940;-30
2023/12/03 08:26:31;;;;;;;;;;;1.70;99.90;;;;;;5115145;27;19975;-30
2023/12/03 08:28:57;;;;;;;;;;;1.70;99.90;;;;;;5113943;27;20360;-30
2023/12/03 08:31:24;;;;;;;;;;;1.70;99.90;;;;;;5114966;27;19939;-30
2023/12/03 08:33:51;;;;;;;;;;;1.70;99.90;;;;;;5132060;27;19923;-30
2023/12/03 08:36:18;;;;;;;;;;;1.70;99.90;;;;;;5115171;27;19996;-30
2023/12/03 08:38:44;;;;;;;;;;;1.80;99.90;;;;;;5106210;27;19951;-30
2023/12/03 08:41:12;;;;;;;;;;;1.80;99.90;;;;;;5129374;27;19938;-30
2023/12/03 08:43:39;;;;;;;;;;;1.80;99.90;;;;;;5125100;27;20187;-30
2023/12/03 08:46:06;;;;;;;;;;;1.80;99.90;;;;;;5110679;27;19938;-29
2023/12/03 08:48:33;;;;;;;;;;;1.80;99.90;;;;;;5107464;28;20403;-30
2023/12/03 08:50:59;;;;;;;;;;;1.80;99.90;;;;;;5114851;27;19986;-30
2023/12/03 08:53:26;;;;;;;;;;;1.80;99.90;;;;;;5132021;27;19938;-30
2023/12/03 08:55:53;;;;;;;;;;;1.80;99.90;;;;;;5110278;28;19994;-31
2023/12/03 08:58:21;;;;;;;;;;;1.90;99.90;;;;;;5102740;28;19985;-31
2023/12/03 09:00:47;;;;;;;;;;;1.80;99.90;;;;;;5111878;27;19940;-30
2023/12/03 09:03:14;;;;;;;;;;;1.80;99.90;;;;;;5110002;27;19937;-31
2023/12/03 09:05:41;;;;;;;;;;;1.80;99.90;;;;;;5132157;27;20394;-30
2023/12/03 09:08:07;;;;;;;;;;;1.90;99.90;;;;;;5114679;27;19939;-30
2023/12/03 09:10:34;;;;;;;;;;;1.90;99.90;;;;;;5127402;27;19934;-31
2023/12/03 09:13:00;;;;;;;;;;;1.90;99.90;;;;;;5120391;27;20429;-31
2023/12/03 09:15:28;;;;;;;;;;;1.90;99.90;;;;;;5108121;27;20005;-31
2023/12/03 09:17:55;;;;;;;;;;;2.00;99.90;;;;;;5115387;27;19943;-30
2023/12/03 09:20:22;;;;;;;;;;;2.00;99.90;;;;;;5114684;27;19940;-30
2023/12/03 09:22:48;;;;;;;;;;;2.00;99.90;;;;;;5120312;27;19997;-30
2023/12/03 09:25:15;;;;;;;;;;;2.00;99.90;;;;;;5123739;27;20434;-30
2023/12/03 09:27:42;;;;;;;;;;;2.00;99.90;;;;;;5110893;27;19965;-30
2023/12/03 09:30:10;;;;;;;;;;;2.00;99.90;;;;;;5112921;27;19944;-30
2023/12/03 09:32:38;;;;;;;;;;;2.00;99.90;;;;;;5128976;27;19964;-31
2023/12/03 09:35:05;;;;;;;;;;;2.00;99.90;;;;;;5131114;27;19964;-30
2023/12/03 09:37:32;;;;;;;;;;;2.00;99.90;;;;;;5111060;28;20427;-30
2023/12/03 09:39:59;;;;;;;;;;;2.00;99.90;;;;;;5129642;28;19943;-31
2023/12/03 09:42:26;;;;;;;;;;;2.00;99.90;;;;;;5126509;28;19934;-29
2023/12/03 09:44:54;;;;;;;;;;;2.00;99.90;;;;;;5130337;28;19935;-31
2023/12/03 09:47:21;;;;;;;;;;;2.10;99.90;;;;;;5108097;28;19981;-29
2023/12/03 09:49:49;;;;;;;;;;;2.10;99.90;;;;;;5112703;28;19943;-29
2023/12/03 09:52:17;;;;;;;;;;;2.10;99.90;;;;;;5111871;28;19939;-30
2023/12/03 09:54:45;;;;;;;;;;;2.00;99.90;;;;;;5131393;28;20008;-31
2023/12/03 09:57:12;;;;;;;;;;;1.90;99.90;;;;;;5129145;28;20309;-31
2023/12/03 09:59:39;;;;;;;;;;;1.90;99.90;;;;;;5113852;28;19942;-31
2023/12/03 10:02:05;;;;;;;;;;;2.00;99.90;;;;;;5130929;28;19938;-30
2023/12/03 10:04:32;;;;;;;;;;;2.00;99.90;;;;;;5105474;28;19941;-31
2023/12/03 10:07:00;;;;;;;;;;;2.00;99.90;;;;;;5130017;28;19986;-30
2023/12/03 10:09:26;;;;;;;;;;;2.00;99.90;;;;;;5115823;27;19998;-30
2023/12/03 10:11:53;;;;;;;;;;;2.10;99.90;;;;;;5132661;27;20027;-29
2023/12/03 10:14:20;;;;;;;;;;;2.10;99.90;;;;;;5101819;27;19958;-30
2023/12/03 10:16:50;;;;;;;;;;;2.20;99.90;;;;;;5110492;27;19942;-30
2023/12/03 10:19:21;;;;;;;;;;;2.20;99.90;;;;;;5114619;27;20032;-31
2023/12/03 10:21:48;;;;;;;;;;;2.30;99.90;;;;;;5114800;27;19941;-31
2023/12/03 10:24:16;;;;;;;;;;;2.30;99.90;;;;;;5118200;27;20308;-31
2023/12/03 10:26:49;;;;;;;;;;;2.30;99.90;;;;;;5125599;27;19940;-31
2023/12/03 10:29:19;;;;;;;;;;;2.40;99.90;;;;;;5116162;28;20297;-31
2023/12/03 10:31:46;;;;;;;;;;;2.40;99.90;;;;;;5116330;27;19943;-32
2023/12/03 10:34:12;;;;;;;;;;;2.30;99.90;;;;;;5134778;27;20378;-30
2023/12/03 10:36:39;;;;;;;;;;;2.30;99.90;;;;;;5128890;27;19936;-31
2023/12/03 10:39:07;;;;;;;;;;;2.30;99.90;;;;;;5134105;27;19945;-30
2023/12/03 10:41:35;;;;;;;;;;;2.30;99.90;;;;;;5116335;27;19935;-30
2023/12/03 10:44:02;;;;;;;;;;;2.40;99.90;;;;;;5113419;27;19946;-31
2023/12/03 10:46:28;;;;;;;;;;;2.40;99.90;;;;;;5135111;27;20307;-31
2023/12/03 10:48:55;;;;;;;;;;;2.30;99.90;;;;;;5134286;27;19943;-30
2023/12/03 10:51:22;;;;;;;;;;;2.40;99.90;;;;;;5131665;27;20342;-31
2023/12/03 10:53:49;;;;;;;;;;;2.40;99.90;;;;;;5130661;27;20291;-30
2023/12/03 10:56:16;;;;;;;;;;;2.50;99.90;;;;;;5110633;27;19991;-30
2023/12/03 10:58:44;;;;;;;;;;;2.50;99.90;;;;;;5129481;27;19935;-30
2023/12/03 11:01:12;;;;;;;;;;;2.40;99.90;;;;;;5104943;27;19948;-30
2023/12/03 11:03:43;;;;;;;;;;;2.30;99.90;;;;;;5129094;27;19949;-29
2023/12/03 11:06:10;;;;;;;;;;;2.30;99.90;;;;;;5115600;27;19941;-30
2023/12/03 11:08:37;;;;;;;;;;;2.30;99.90;;;;;;5111083;27;19936;-30
2023/12/03 11:11:04;;;;;;;;;;;2.30;99.90;;;;;;5103047;27;19939;-30
2023/12/03 11:13:32;;;;;;;;;;;2.30;99.90;;;;;;5115469;27;19956;-30
2023/12/03 11:16:00;;;;;;;;;;;2.20;99.90;;;;;;5115262;27;20004;-30
2023/12/03 11:18:26;;;;;;;;;;;2.20;99.90;;;;;;5132548;27;19943;-29
2023/12/03 11:20:53;;;;;;;;;;;2.20;99.90;;;;;;5114989;27;19944;-29
2023/12/03 11:23:23;;;;;;;;;;;2.30;99.90;;;;;;5115875;27;19928;-31
2023/12/03 11:25:53;;;;;;;;;;;2.30;99.90;;;;;;5113200;27;19944;-30
2023/12/03 11:28:20;;;;;;;;;;;2.30;99.90;;;;;;5132639;27;19952;-30
2023/12/03 11:30:48;;;;;;;;;;;2.20;99.90;;;;;;5104408;27;19987;-30
2023/12/03 11:33:16;;;;;;;;;;;2.30;99.90;;;;;;5134064;27;20022;-31
2023/12/03 11:35:43;;;;;;;;;;;2.20;99.90;;;;;;5113262;27;20005;-30
2023/12/03 11:38:10;;;;;;;;;;;2.20;99.90;;;;;;5115133;27;19949;-30
2023/12/03 11:40:36;;;;;;;;;;;2.20;99.90;;;;;;5132617;27;19940;-29
2023/12/03 11:43:05;;;;;;;;;;;2.20;99.90;;;;;;5128438;27;20360;-30
2023/12/03 11:45:33;;;;;;;;;;;2.20;99.90;;;;;;5115250;27;19979;-30
2023/12/03 11:48:06;;;;;;;;;;;2.20;99.90;;;;;;5130713;27;19940;-30
2023/12/03 11:50:34;;;;;;;;;;;2.10;99.90;;;;;;5128120;27;19936;-30
2023/12/03 11:53:01;;;;;;;;;;;2.10;99.90;;;;;;5125623;27;20455;-29
2023/12/03 11:55:28;;;;;;;;;;;2.00;99.90;;;;;;5130482;27;19948;-30
2023/12/03 11:57:55;;;;;;;;;;;2.00;99.90;;;;;;5133209;27;20282;-30
2023/12/03 12:00:24;;;;;;;;;;;2.10;99.90;;;;;;5126635;27;20135;-30
2023/12/03 12:02:51;;;;;;;;;;;2.00;99.90;;;;;;5115100;27;20436;-30
2023/12/03 12:05:18;;;;;;;;;;;2.00;99.90;;;;;;5115976;27;20289;-31
2023/12/03 12:07:52;;;;;;;;;;;2.00;99.90;;;;;;5133331;27;19943;-30
2023/12/03 12:10:19;;;;;;;;;;;1.90;99.90;;;;;;5132328;27;19943;-30
2023/12/03 12:12:45;;;;;;;;;;;2.00;99.90;;;;;;5134420;27;20360;-31
2023/12/03 12:15:12;;;;;;;;;;;2.00;99.90;;;;;;5115604;27;19960;-30
2023/12/03 12:17:39;;;;;;;;;;;2.00;99.90;;;;;;5133553;27;20460;-30
2023/12/03 12:20:06;;;;;;;;;;;2.00;99.90;;;;;;5128334;27;20342;-29
2023/12/03 12:22:33;;;;;;;;;;;2.10;99.90;;;;;;5131354;27;19936;-31
2023/12/03 12:25:01;;;;;;;;;;;2.20;99.90;;;;;;5115337;27;19983;-31
2023/12/03 12:27:29;;;;;;;;;;;2.20;99.90;;;;;;5115344;27;19943;-30
2023/12/03 12:29:56;;;;;;;;;;;2.30;99.90;;;;;;5116101;27;19923;-30
2023/12/03 12:32:22;;;;;;;;;;;2.40;99.90;;;;;;5114306;27;19984;-30
2023/12/03 12:34:49;;;;;;;;;;;2.40;99.90;;;;;;5114729;27;19959;-30
2023/12/03 12:37:16;;;;;;;;;;;2.50;99.90;;;;;;5131518;27;19951;-30
2023/12/03 12:39:42;;;;;;;;;;;2.50;99.90;;;;;;5113804;27;19940;-30
2023/12/03 12:42:22;;;;;;;;;;;2.50;99.90;;;;;;5114912;27;19995;-31
2023/12/03 12:44:49;;;;;;;;;;;2.60;99.90;;;;;;5132479;27;19956;-31
2023/12/03 12:47:16;;;;;;;;;;;2.60;99.90;;;;;;5132269;27;20005;-31
2023/12/03 12:49:50;;;;;;;;;;;2.60;99.90;;;;;;5111757;27;19954;-30
2023/12/03 12:52:17;;;;;;;;;;;2.70;99.90;;;;;;5114860;27;20354;-30
2023/12/03 12:54:44;;;;;;;;;;;2.90;99.90;;;;;;5112563;27;20329;-30
2023/12/03 12:57:12;;;;;;;;;;;2.80;99.90;;;;;;5131065;27;19994;-30
2023/12/03 12:59:39;;;;;;;;;;;2.80;99.90;;;;;;5115931;27;19940;-30
2023/12/03 13:02:06;;;;;;;;;;;2.90;99.90;;;;;;5131984;27;19923;-30
2023/12/03 13:04:33;;;;;;;;;;;2.90;99.90;;;;;;5114234;27;19941;-30
2023/12/03 13:07:00;;;;;;;;;;;3.00;99.90;;;;;;5111700;27;20298;-30
2023/12/03 13:09:27;;;;;;;;;;;3.00;99.90;;;;;;5126836;27;19965;-30
2023/12/03 13:11:53;;;;;;;;;;;3.00;99.90;;;;;;5110077;27;19924;-30
2023/12/03 13:14:21;;;;;;;;;;;3.00;99.90;;;;;;5131883;27;20233;-32
2023/12/03 13:16:48;;;;;;;;;;;2.90;99.90;;;;;;5129070;27;19951;-30
2023/12/03 13:19:16;;;;;;;;;;;2.80;99.90;;;;;;5104797;27;20367;-30
2023/12/03 13:21:43;;;;;;;;;;;2.80;99.90;;;;;;5111651;27;19965;-30
2023/12/03 13:24:10;;;;;;;;;;;2.70;99.90;;;;;;5123640;27;20334;-31
2023/12/03 13:26:36;;;;;;;;;;;2.60;99.90;;;;;;5130055;27;20410;-30
2023/12/03 13:29:03;;;;;;;;;;;2.60;99.90;;;;;;5109194;27;19982;-30
2023/12/03 13:31:31;;;;;;;;;;;2.60;99.90;;;;;;5129586;27;19941;-30
2023/12/03 13:33:58;;;;;;;;;;;2.60;99.90;;;;;;5131403;27;19963;-31
2023/12/03 13:36:25;;;;;;;;;;;2.50;99.90;;;;;;5112452;27;19963;-30
2023/12/03 13:38:51;;;;;;;;;;;2.50;99.90;;;;;;5113742;28;19936;-30
2023/12/03 13:41:18;;;;;;;;;;;2.50;99.90;;;;;;5131497;28;20025;-30
2023/12/03 13:43:45;;;;;;;;;;;2.50;99.90;;;;;;5110499;28;20454;-30
2023/12/03 13:46:11;;;;;;;;;;;2.50;99.90;;;;;;5120738;28;19939;-31
2023/12/03 13:48:39;;;;;;;;;;;2.40;99.90;;;;;;5105940;28;20002;-29
2023/12/03 13:51:06;;;;;;;;;;;2.40;99.90;;;;;;5114421;28;19940;-30
2023/12/03 13:53:33;;;;;;;;;;;2.40;99.90;;;;;;5122650;28;19946;-31
2023/12/03 13:55:59;;;;;;;;;;;2.30;99.90;;;;;;5120576;28;19956;-31
2023/12/03 13:58:26;;;;;;;;;;;2.40;99.90;;;;;;5128309;28;19944;-31
2023/12/03 14:00:53;;;;;;;;;;;2.30;99.90;;;;;;5122580;28;19965;-30
2023/12/03 14:03:20;;;;;;;;;;;2.30;99.90;;;;;;5101113;28;20367;-30
2023/12/03 14:05:48;;;;;;;;;;;2.20;99.90;;;;;;5113484;28;19947;-30
2023/12/03 14:08:15;;;;;;;;;;;2.30;99.90;;;;;;5113119;28;19936;-30
2023/12/03 14:10:42;;;;;;;;;;;2.20;99.90;;;;;;5113566;28;19987;-30
2023/12/03 14:13:08;;;;;;;;;;;2.20;99.90;;;;;;5125287;28;19964;-29
2023/12/03 14:15:35;;;;;;;;;;;2.20;99.90;;;;;;5105272;28;19995;-30
2023/12/03 14:18:02;;;;;;;;;;;2.20;99.90;;;;;;5109054;28;19993;-31
2023/12/03 14:20:28;;;;;;;;;;;2.20;99.90;;;;;;5107339;28;19939;-29
2023/12/03 14:22:56;;;;;;;;;;;2.20;99.90;;;;;;5106131;28;19988;-30
2023/12/03 14:25:25;;;;;;;;;;;2.10;99.90;;;;;;5107689;28;19971;-30
2023/12/03 14:27:52;;;;;;;;;;;2.10;99.90;;;;;;5126798;28;19934;-30
2023/12/03 14:30:19;;;;;;;;;;;2.10;99.90;;;;;;5126141;28;19947;-30